Time;durP1;ratioP1;P1;durP2;ratioP2;P2;SDS_P1;SDS_P2;PMS_P1;PMS_P2;Temp;Humidity;BMP_temperature;BMP_pressure;BME280_temperature;BME280_humidity;BME280_pressure;Samples;Min_cycle;Max_cycle;Signal;HPM_P1;HPM_P2
2022/03/31 18:57:07;;;;;;;9.98;6.50;;;;;;;;;;7242494;19;21295;-77
2022/03/31 22:02:39;;;;;;;14.32;8.60;;;;;;;;;;7258227;19;20022;-78
2022/03/31 22:05:04;;;;;;;13.27;9.18;;;;;;;;;;7333388;19;21787;-79
2022/03/31 22:07:29;;;;;;;13.23;8.80;;;;;;;;;;7372875;19;20014;-80
2022/03/31 22:12:38;;;;;;;14.88;10.52;;;;;;;;;;7376271;19;20266;-80
2022/03/31 22:15:04;;;;;;;15.80;10.38;;;;;;;;;;7372332;19;20454;-79
2022/03/31 22:17:30;;;;;;;15.93;10.70;;;;;;;;;;7346112;19;20037;-80
2022/03/31 22:19:55;;;;;;;14.80;10.27;;;;;;;;;;7354261;19;20720;-78
2022/03/31 22:22:21;;;;;;;15.93;10.68;;;;;;;;;;7383372;19;20019;-79
2022/03/31 22:24:46;;;;;;;15.55;10.93;;;;;;;;;;7377593;19;20018;-78
2022/03/31 22:27:13;;;;;;;15.68;10.43;;;;;;;;;;7355315;19;20017;-78
2022/03/31 22:29:39;;;;;;;13.88;9.27;;;;;;;;;;7378979;19;20014;-78
2022/03/31 22:32:05;;;;;;;14.30;10.02;;;;;;;;;;7370333;19;20037;-78
2022/03/31 22:34:30;;;;;;;13.32;9.13;;;;;;;;;;7364152;19;20022;-79
2022/03/31 22:36:56;;;;;;;15.93;10.65;;;;;;;;;;7367639;19;20073;-79
2022/03/31 22:39:22;;;;;;;15.27;10.23;;;;;;;;;;7383809;19;20018;-79
2022/03/31 22:41:48;;;;;;;16.42;11.02;;;;;;;;;;7376888;19;20002;-79
2022/03/31 22:44:13;;;;;;;16.10;11.18;;;;;;;;;;7386931;19;20370;-78
2022/03/31 22:46:39;;;;;;;13.77;9.55;;;;;;;;;;7354736;19;20026;-78
2022/03/31 22:49:07;;;;;;;16.20;10.50;;;;;;;;;;7366097;19;20014;-78
2022/03/31 22:51:34;;;;;;;16.83;10.88;;;;;;;;;;7380874;19;20039;-78
2022/03/31 22:53:59;;;;;;;16.50;10.02;;;;;;;;;;7369451;19;20010;-78
2022/03/31 22:56:25;;;;;;;15.75;10.50;;;;;;;;;;7384992;19;20502;-77
2022/03/31 22:58:50;;;;;;;16.33;10.57;;;;;;;;;;7360823;19;20074;-78
2022/03/31 23:01:16;;;;;;;17.98;11.10;;;;;;;;;;7365863;19;20037;-78
2022/03/31 23:03:42;;;;;;;17.48;11.55;;;;;;;;;;7370003;19;20006;-79
2022/03/31 23:06:08;;;;;;;18.02;11.95;;;;;;;;;;7378929;19;20062;-80
2022/03/31 23:08:34;;;;;;;17.80;11.70;;;;;;;;;;7364187;19;20010;-79
2022/03/31 23:10:59;;;;;;;17.58;11.30;;;;;;;;;;7358643;19;20006;-77
2022/03/31 23:13:24;;;;;;;20.50;13.30;;;;;;;;;;7381078;19;20414;-80
2022/03/31 23:15:49;;;;;;;19.20;12.48;;;;;;;;;;7366000;19;20712;-81
2022/03/31 23:18:15;;;;;;;18.40;11.90;;;;;;;;;;7378367;19;21114;-80
2022/03/31 23:20:41;;;;;;;19.80;12.68;;;;;;;;;;7360868;19;21525;-79
2022/03/31 23:23:06;;;;;;;20.67;12.68;;;;;;;;;;7364610;19;20002;-79
2022/03/31 23:25:31;;;;;;;18.67;11.80;;;;;;;;;;7370087;19;20481;-79
2022/03/31 23:27:56;;;;;;;19.23;12.80;;;;;;;;;;7382009;19;20235;-78
2022/03/31 23:30:22;;;;;;;17.75;11.95;;;;;;;;;;7381330;19;20082;-79
2022/03/31 23:32:47;;;;;;;20.25;12.85;;;;;;;;;;7361876;19;20006;-79
2022/03/31 23:35:12;;;;;;;21.65;13.10;;;;;;;;;;7381366;19;20435;-77
2022/03/31 23:37:38;;;;;;;20.48;13.20;;;;;;;;;;7376823;19;20021;-79
2022/03/31 23:40:04;;;;;;;19.83;12.27;;;;;;;;;;7386017;19;20435;-78
2022/03/31 23:42:30;;;;;;;22.70;13.57;;;;;;;;;;7376306;19;20271;-79
2022/03/31 23:44:55;;;;;;;22.95;13.85;;;;;;;;;;7385687;19;20003;-79
2022/03/31 23:47:21;;;;;;;20.90;13.60;;;;;;;;;;7374558;19;20018;-78
2022/03/31 23:49:46;;;;;;;21.30;14.10;;;;;;;;;;7368902;19;20017;-79
2022/03/31 23:52:11;;;;;;;25.13;15.40;;;;;;;;;;7369224;19;20010;-79
2022/03/31 23:54:36;;;;;;;23.40;14.55;;;;;;;;;;7384761;19;20002;-79
2022/03/31 23:57:01;;;;;;;23.73;14.43;;;;;;;;;;7377404;19;20056;-78
2022/03/31 23:59:26;;;;;;;25.33;14.77;;;;;;;;;;7385531;19;20014;-79
